createdAt,value
2022-11-05T00:02:36.736Z,6.5
2022-11-05T00:12:36.767Z,6.7
2022-11-05T00:22:36.719Z,6.9
2022-11-05T00:32:36.706Z,6.8
2022-11-05T00:42:36.705Z,6.8
2022-11-05T00:52:36.702Z,6.9
2022-11-05T01:02:36.811Z,6.9
2022-11-05T01:12:36.686Z,6.9
2022-11-05T01:22:36.620Z,6.9
2022-11-05T01:32:36.639Z,6.9
2022-11-05T01:42:36.645Z,6.7
2022-11-05T01:52:36.598Z,6.7
2022-11-05T02:02:36.680Z,6.7
2022-11-05T02:12:36.615Z,6.7
2022-11-05T02:22:36.564Z,6.5
2022-11-05T02:32:36.549Z,6.6
2022-11-05T02:42:36.594Z,6.6
2022-11-05T02:52:36.529Z,6.7
2022-11-05T03:02:36.632Z,6.7
2022-11-05T03:12:36.529Z,6.7
2022-11-05T03:22:36.516Z,6.7
2022-11-05T03:32:36.463Z,6.7
2022-11-05T03:42:36.457Z,6.7
2022-11-05T03:52:36.496Z,6.8
2022-11-05T04:12:36.423Z,6.6
2022-11-05T04:22:36.445Z,6.7
2022-11-05T04:32:36.395Z,6.7
2022-11-05T04:42:36.396Z,6.5
2022-11-05T04:52:36.417Z,6.4
2022-11-05T05:02:36.370Z,6.4
2022-11-05T05:12:36.355Z,6.4
2022-11-05T05:22:36.376Z,6.4
2022-11-05T05:32:36.329Z,6.2
2022-11-05T05:42:41.766Z,6.3
2022-11-05T05:52:36.342Z,6.3
2022-11-05T06:02:36.395Z,6.3
2022-11-05T06:12:36.303Z,6.3
2022-11-05T06:22:36.291Z,6.3
2022-11-05T06:32:36.271Z,6.3
2022-11-05T06:42:36.251Z,6.5
2022-11-05T06:52:40.884Z,6.6
2022-11-05T07:02:36.212Z,6.5
2022-11-05T07:12:36.211Z,6.7
2022-11-05T07:22:36.248Z,6.9
2022-11-05T07:32:36.185Z,6.9
2022-11-05T07:42:36.182Z,7.1
2022-11-05T07:52:36.176Z,7.5
2022-11-05T08:02:36.262Z,8
2022-11-05T08:12:36.174Z,8.5
2022-11-05T08:22:36.175Z,8.9
2022-11-05T08:32:36.128Z,9.2
2022-11-05T08:42:36.113Z,9.4
2022-11-05T08:52:36.149Z,9.5
2022-11-05T09:02:36.164Z,9.5
2022-11-05T09:12:36.101Z,9.5
2022-11-05T09:22:40.580Z,9.7
2022-11-05T09:32:36.011Z,9.8
2022-11-05T09:42:36.050Z,10
2022-11-05T09:52:36.044Z,10.2
2022-11-05T10:02:36.168Z,10.4
2022-11-05T10:12:36.002Z,10.7
2022-11-05T10:22:35.993Z,11.1
2022-11-05T10:32:35.936Z,11.5
2022-11-05T10:42:35.948Z,11.8
2022-11-05T10:52:35.968Z,12
2022-11-05T11:02:35.944Z,11.9
2022-11-05T11:12:40.725Z,11.9
2022-11-05T11:22:35.904Z,11.9
2022-11-05T11:32:35.843Z,11.9
2022-11-05T11:42:35.867Z,11.9
2022-11-05T11:52:35.863Z,12
2022-11-05T12:02:35.883Z,12
2022-11-05T12:12:35.810Z,12.2
2022-11-05T12:22:35.811Z,12.4
2022-11-05T12:32:35.880Z,12.4
2022-11-05T12:42:35.781Z,12.2
2022-11-05T12:52:35.731Z,12.2
2022-11-05T13:02:35.773Z,12.2
2022-11-05T13:12:35.731Z,12.3
2022-11-05T13:22:35.686Z,12.3
2022-11-05T13:32:35.669Z,12.3
2022-11-05T13:42:35.711Z,12.4
2022-11-05T13:52:35.643Z,12.4
2022-11-05T14:02:35.637Z,12.4
2022-11-05T14:12:35.620Z,12.4
2022-11-05T14:22:35.577Z,12.4
2022-11-05T14:32:35.550Z,12.3
2022-11-05T14:42:35.579Z,12.2
2022-11-05T14:52:35.557Z,12.8
2022-11-05T15:02:35.605Z,13.7
2022-11-05T15:12:35.520Z,14.5
2022-11-05T15:22:35.477Z,14.6
2022-11-05T15:32:38.411Z,13.9
2022-11-05T15:42:35.484Z,13.2
2022-11-05T15:52:35.424Z,12.6
2022-11-05T16:02:35.583Z,11.9
2022-11-05T16:12:35.422Z,11.5
2022-11-05T16:22:35.358Z,11.2
2022-11-05T16:32:35.357Z,11
2022-11-05T16:42:35.370Z,10.7
2022-11-05T16:52:35.316Z,10.3
2022-11-05T17:02:35.441Z,9.8
2022-11-05T17:12:35.311Z,9.6
2022-11-05T17:22:35.330Z,9.4
2022-11-05T17:32:35.342Z,9.3
2022-11-05T17:42:35.262Z,9
2022-11-05T17:52:35.292Z,8.5
2022-11-05T18:02:35.305Z,8.1
2022-11-05T18:12:35.194Z,7.6
2022-11-05T18:22:35.236Z,7.4
2022-11-05T18:32:35.182Z,6.9
2022-11-05T18:42:35.181Z,6.6
2022-11-05T18:52:35.197Z,6.2
2022-11-05T19:02:35.290Z,6.1
2022-11-05T19:22:35.166Z,6.1
2022-11-05T19:32:35.133Z,5.9
2022-11-05T19:42:35.111Z,5.7
2022-11-05T19:52:35.087Z,5.5
2022-11-05T20:02:35.223Z,5.5
2022-11-05T20:12:35.059Z,5.4
2022-11-05T20:22:35.092Z,5.3
2022-11-05T20:32:35.047Z,5.2
2022-11-05T20:42:35.045Z,5
2022-11-05T20:52:35.022Z,5
2022-11-05T21:02:35.217Z,4.8
2022-11-05T21:12:35.003Z,4.6
2022-11-05T21:22:35.045Z,4.6
2022-11-05T21:32:34.964Z,4.4
2022-11-05T21:42:34.996Z,4.5
2022-11-05T21:52:34.949Z,4.6
2022-11-05T22:02:35.041Z,4.5
2022-11-05T22:12:34.966Z,4.4
2022-11-05T22:22:34.956Z,4.3
2022-11-05T22:32:34.900Z,4.5
2022-11-05T22:42:34.979Z,4.7
2022-11-05T22:52:34.887Z,4.7
2022-11-05T23:02:35.031Z,4.7
2022-11-05T23:12:34.912Z,4.6
2022-11-05T23:22:34.882Z,4.4
2022-11-05T23:32:34.839Z,4.3
2022-11-05T23:42:34.874Z,4.1
2022-11-05T23:52:34.840Z,4.2
